Time;durP1;ratioP1;P1;durP2;ratioP2;P2;SDS_P1;SDS_P2;PMS_P1;PMS_P2;Temp;Humidity;BMP_temperature;BMP_pressure;BME280_temperature;BME280_humidity;BME280_pressure;Samples;Min_cycle;Max_cycle;Signal;HPM_P1;HPM_P2
2022/05/18 00:01:46;;;;;;;;;;;15.20;1.00;;;;;;5044338;28;19920;-75
2022/05/18 00:04:13;;;;;;;;;;;15.20;1.00;;;;;;5049585;28;19961;-75
2022/05/18 00:06:43;;;;;;;;;;;15.20;1.00;;;;;;5039907;28;19913;-75
2022/05/18 00:15:15;;;;;;;;;;;15.10;1.00;;;;;;5044853;28;19927;-83
2022/05/18 00:20:43;;;;;;;;;;;15.00;1.00;;;;;;5034007;28;19917;-83
2022/05/18 00:29:15;;;;;;;;;;;14.90;1.00;;;;;;5030259;28;19944;-82
2022/05/18 00:37:47;;;;;;;;;;;14.90;1.00;;;;;;5017522;28;19963;-83
2022/05/18 00:40:13;;;;;;;;;;;14.90;1.00;;;;;;5026830;28;20497;-75
2022/05/18 00:42:49;;;;;;;;;;;14.90;1.00;;;;;;5045996;28;19916;-74
2022/05/18 00:45:15;;;;;;;;;;;14.80;1.00;;;;;;5038524;28;19952;-75
2022/05/18 00:47:42;;;;;;;;;;;14.80;1.00;;;;;;5037131;28;19913;-75
2022/05/18 00:50:09;;;;;;;;;;;14.70;1.00;;;;;;5050613;28;19994;-75
2022/05/18 00:52:36;;;;;;;;;;;14.70;1.00;;;;;;5050400;28;19920;-75
2022/05/18 00:55:03;;;;;;;;;;;14.70;1.00;;;;;;5037704;28;20340;-75
2022/05/18 00:57:31;;;;;;;;;;;14.70;1.00;;;;;;5045256;28;19913;-75
2022/05/18 01:00:00;;;;;;;;;;;14.70;1.00;;;;;;5037262;28;19909;-75
2022/05/18 01:02:28;;;;;;;;;;;14.60;1.00;;;;;;5022511;28;20280;-74
2022/05/18 01:04:57;;;;;;;;;;;14.60;1.00;;;;;;5045193;28;19955;-76
2022/05/18 01:07:26;;;;;;;;;;;14.60;1.00;;;;;;5041842;28;19991;-74
2022/05/18 01:10:19;;;;;;;;;;;14.60;1.00;;;;;;5036949;28;19917;-82
2022/05/18 01:18:52;;;;;;;;;;;14.50;1.00;;;;;;5037148;28;19920;-83
2022/05/18 01:24:29;;;;;;;;;;;14.40;1.00;;;;;;5036664;28;19916;-83
2022/05/18 01:26:56;;;;;;;;;;;14.40;1.00;;;;;;5019165;28;19917;-82
2022/05/18 01:29:22;;;;;;;;;;;14.40;1.00;;;;;;5018666;28;19943;-83
2022/05/18 01:38:13;;;;;;;;;;;14.30;1.00;;;;;;5042268;28;19978;-83
2022/05/18 01:40:38;;;;;;;;;;;14.30;1.00;;;;;;5038920;28;19912;-75
2022/05/18 01:43:14;;;;;;;;;;;14.30;1.00;;;;;;5036706;28;20539;-75
2022/05/18 01:45:43;;;;;;;;;;;14.20;1.00;;;;;;5041049;28;19956;-74
2022/05/18 01:48:30;;;;;;;;;;;14.20;1.00;;;;;;5018450;28;19915;-75
2022/05/18 01:50:57;;;;;;;;;;;14.20;1.00;;;;;;5049177;28;19928;-74
2022/05/18 01:53:22;;;;;;;;;;;14.10;1.00;;;;;;5012630;28;19909;-75
2022/05/18 01:55:48;;;;;;;;;;;14.10;1.00;;;;;;5042148;28;19928;-75
2022/05/18 01:58:14;;;;;;;;;;;14.10;1.00;;;;;;5042861;28;19971;-75
2022/05/18 02:00:41;;;;;;;;;;;14.10;1.00;;;;;;5045876;28;19916;-75
2022/05/18 02:03:06;;;;;;;;;;;14.10;1.00;;;;;;5022679;28;19913;-75
2022/05/18 02:05:32;;;;;;;;;;;14.10;1.00;;;;;;5036002;28;20245;-75
2022/05/18 02:08:07;;;;;;;;;;;14.10;1.00;;;;;;5041503;28;20462;-75
2022/05/18 02:10:33;;;;;;;;;;;14.00;1.00;;;;;;5041890;28;19917;-75
2022/05/18 02:12:59;;;;;;;;;;;14.00;1.00;;;;;;5018129;28;19909;-75
2022/05/18 02:15:25;;;;;;;;;;;14.00;1.00;;;;;;5049582;28;19913;-75
2022/05/18 02:17:51;;;;;;;;;;;13.90;1.00;;;;;;5040939;28;19917;-75
2022/05/18 02:20:17;;;;;;;;;;;14.00;1.00;;;;;;5033982;28;20334;-75
2022/05/18 02:22:43;;;;;;;;;;;14.00;1.00;;;;;;5023766;28;20008;-75
2022/05/18 02:25:13;;;;;;;;;;;13.90;1.00;;;;;;5027032;28;20046;-75
2022/05/18 02:27:39;;;;;;;;;;;13.90;1.00;;;;;;5045025;28;19924;-82
2022/05/18 02:30:06;;;;;;;;;;;13.90;1.00;;;;;;5055317;28;19921;-83
2022/05/18 02:35:43;;;;;;;;;;;13.90;1.00;;;;;;5035285;28;19920;-83
2022/05/18 02:41:11;;;;;;;;;;;13.80;1.00;;;;;;5055092;28;19951;-75
2022/05/18 02:43:40;;;;;;;;;;;13.80;1.00;;;;;;5068508;28;19936;-74
2022/05/18 02:46:10;;;;;;;;;;;13.80;1.00;;;;;;5055070;28;20314;-75
2022/05/18 02:48:43;;;;;;;;;;;13.80;1.00;;;;;;5041546;28;19966;-75
2022/05/18 02:51:19;;;;;;;;;;;13.80;1.00;;;;;;5054684;28;19913;-75
2022/05/18 02:53:49;;;;;;;;;;;13.80;1.00;;;;;;5075879;28;20279;-75
2022/05/18 02:56:26;;;;;;;;;;;13.80;1.00;;;;;;5087473;28;20016;-75
2022/05/18 02:58:53;;;;;;;;;;;13.80;1.00;;;;;;5045938;28;19912;-75
2022/05/18 03:01:20;;;;;;;;;;;13.80;1.00;;;;;;5059431;28;19912;-75
2022/05/18 03:03:56;;;;;;;;;;;13.70;1.00;;;;;;5057066;28;19958;-75
2022/05/18 03:06:22;;;;;;;;;;;13.70;1.00;;;;;;5054867;28;20257;-75
2022/05/18 03:08:50;;;;;;;;;;;13.70;1.00;;;;;;5086946;28;19909;-75
2022/05/18 03:11:16;;;;;;;;;;;13.70;1.00;;;;;;5055094;28;19991;-75
2022/05/18 03:13:42;;;;;;;;;;;13.70;1.00;;;;;;5067749;28;20298;-75
2022/05/18 03:16:08;;;;;;;;;;;13.70;1.00;;;;;;5054567;28;20308;-74
2022/05/18 03:18:34;;;;;;;;;;;13.70;1.00;;;;;;5054664;28;19909;-75
2022/05/18 03:23:49;;;;;;;;;;;13.70;1.00;;;;;;5045500;28;19920;-75
2022/05/18 03:26:37;;;;;;;;;;;13.60;1.00;;;;;;5054722;28;19916;-75
2022/05/18 03:29:03;;;;;;;;;;;13.60;1.00;;;;;;5054070;28;19917;-75
2022/05/18 03:31:28;;;;;;;;;;;13.60;1.00;;;;;;5054919;28;19917;-75
2022/05/18 03:33:58;;;;;;;;;;;13.60;1.00;;;;;;5067117;28;19956;-75
2022/05/18 03:36:37;;;;;;;;;;;13.60;1.00;;;;;;5055063;28;20360;-75
2022/05/18 03:39:03;;;;;;;;;;;13.60;1.00;;;;;;5064942;28;20399;-75
2022/05/18 03:47:35;;;;;;;;;;;13.50;1.00;;;;;;5060901;28;20032;-83
2022/05/18 03:56:19;;;;;;;;;;;13.50;1.00;;;;;;5053845;28;19920;-83
2022/05/18 04:02:07;;;;;;;;;;;13.50;1.00;;;;;;5054000;28;19924;-83
2022/05/18 04:04:49;;;;;;;;;;;13.50;1.00;;;;;;5059700;28;20371;-83
2022/05/18 04:13:21;;;;;;;;;;;13.50;1.00;;;;;;5058353;28;19916;-83
2022/05/18 04:19:19;;;;;;;;;;;13.60;1.00;;;;;;5040638;28;20413;-83
2022/05/18 04:24:47;;;;;;;;;;;13.60;1.00;;;;;;5057478;28;19916;-82
2022/05/18 04:27:13;;;;;;;;;;;13.70;1.00;;;;;;5057647;28;19912;-82
2022/05/18 04:29:38;;;;;;;;;;;13.70;1.00;;;;;;5089850;28;20007;-72
2022/05/18 04:32:05;;;;;;;;;;;13.70;1.00;;;;;;5057492;28;19932;-72
2022/05/18 04:34:31;;;;;;;;;;;13.70;1.00;;;;;;5058833;28;20249;-72
2022/05/18 04:36:57;;;;;;;;;;;13.70;1.00;;;;;;5059854;28;19920;-72
2022/05/18 04:39:25;;;;;;;;;;;13.70;1.00;;;;;;5059029;28;19912;-72
2022/05/18 04:41:51;;;;;;;;;;;13.80;1.00;;;;;;5043494;28;19924;-71
2022/05/18 04:44:17;;;;;;;;;;;13.80;1.00;;;;;;5052692;28;19920;-70
2022/05/18 04:46:42;;;;;;;;;;;13.80;1.00;;;;;;5062078;28;20308;-71
2022/05/18 04:49:11;;;;;;;;;;;13.90;1.00;;;;;;5067535;28;19999;-72
2022/05/18 04:51:37;;;;;;;;;;;13.90;1.00;;;;;;5062544;28;19919;-71
2022/05/18 04:54:03;;;;;;;;;;;14.00;1.00;;;;;;5063961;28;19913;-71
2022/05/18 04:56:31;;;;;;;;;;;14.00;1.00;;;;;;5070621;28;19931;-70
2022/05/18 04:58:56;;;;;;;;;;;14.10;1.00;;;;;;5055158;28;20009;-71
2022/05/18 05:01:24;;;;;;;;;;;14.10;1.00;;;;;;5061829;28;19943;-72
2022/05/18 05:03:50;;;;;;;;;;;14.20;1.00;;;;;;5056067;28;19917;-72
2022/05/18 05:06:15;;;;;;;;;;;14.30;1.00;;;;;;5057198;28;20252;-72
2022/05/18 05:08:41;;;;;;;;;;;14.30;1.00;;;;;;5056166;28;20430;-72
2022/05/18 05:11:07;;;;;;;;;;;14.40;1.00;;;;;;5057457;28;19917;-72
2022/05/18 05:13:33;;;;;;;;;;;14.40;1.00;;;;;;5088978;28;19913;-70
2022/05/18 05:16:07;;;;;;;;;;;14.50;1.00;;;;;;5052493;28;20376;-71
2022/05/18 05:18:33;;;;;;;;;;;14.60;1.00;;;;;;5059184;28;19926;-71
2022/05/18 05:20:58;;;;;;;;;;;14.70;1.00;;;;;;5057638;28;19912;-70
2022/05/18 05:23:24;;;;;;;;;;;14.80;1.00;;;;;;5063562;28;19939;-71
2022/05/18 05:25:51;;;;;;;;;;;14.90;1.00;;;;;;5072155;28;19913;-71
2022/05/18 05:28:17;;;;;;;;;;;15.00;1.00;;;;;;5056584;28;19920;-71
2022/05/18 05:30:42;;;;;;;;;;;15.10;1.00;;;;;;5060527;28;19921;-72
2022/05/18 05:33:13;;;;;;;;;;;15.20;1.00;;;;;;5069707;28;19913;-79
2022/05/18 05:35:41;;;;;;;;;;;15.30;1.00;;;;;;5056095;28;19913;-73
2022/05/18 05:38:07;;;;;;;;;;;15.40;1.00;;;;;;5055950;28;19909;-74
2022/05/18 05:40:32;;;;;;;;;;;15.60;1.00;;;;;;5056393;28;20380;-74
2022/05/18 05:42:58;;;;;;;;;;;15.70;1.00;;;;;;5091705;28;20005;-75
2022/05/18 05:45:24;;;;;;;;;;;15.80;1.00;;;;;;5058437;28;19912;-73
2022/05/18 05:47:49;;;;;;;;;;;16.00;1.00;;;;;;5074819;28;19908;-74
2022/05/18 05:50:19;;;;;;;;;;;16.00;1.00;;;;;;5067899;28;20002;-74
2022/05/18 05:52:55;;;;;;;;;;;16.20;1.00;;;;;;5062657;28;19913;-73
2022/05/18 05:55:21;;;;;;;;;;;16.40;1.00;;;;;;5065921;28;19920;-74
2022/05/18 05:57:46;;;;;;;;;;;16.50;1.00;;;;;;5055960;28;19912;-73
2022/05/18 06:00:19;;;;;;;;;;;16.60;1.00;;;;;;5065091;28;19936;-74
2022/05/18 06:02:50;;;;;;;;;;;16.70;1.00;;;;;;5093689;28;19981;-74
2022/05/18 06:05:19;;;;;;;;;;;16.90;1.00;;;;;;5062514;28;19916;-74
2022/05/18 06:07:45;;;;;;;;;;;17.00;1.00;;;;;;5055494;28;20003;-74
2022/05/18 06:10:21;;;;;;;;;;;17.10;1.00;;;;;;5064780;28;19912;-74
2022/05/18 06:12:49;;;;;;;;;;;17.30;1.00;;;;;;5054872;28;19912;-74
2022/05/18 06:15:19;;;;;;;;;;;17.40;1.00;;;;;;5057123;28;20326;-75
2022/05/18 06:17:55;;;;;;;;;;;17.60;1.00;;;;;;5052264;28;19927;-75
2022/05/18 06:20:32;;;;;;;;;;;17.70;1.00;;;;;;5053673;28;19997;-75
2022/05/18 06:23:14;;;;;;;;;;;17.90;1.00;;;;;;5065570;28;19908;-75
2022/05/18 06:25:43;;;;;;;;;;;18.10;1.00;;;;;;5065228;28;19913;-75
2022/05/18 06:28:13;;;;;;;;;;;18.20;1.00;;;;;;5054959;28;20360;-75
2022/05/18 06:30:55;;;;;;;;;;;18.40;1.00;;;;;;5086941;28;20360;-84
2022/05/18 06:36:24;;;;;;;;;;;18.80;1.00;;;;;;5054804;28;19966;-72
2022/05/18 06:38:49;;;;;;;;;;;19.00;1.00;;;;;;5063484;28;19925;-72
2022/05/18 06:41:22;;;;;;;;;;;19.10;1.00;;;;;;5060353;28;19916;-72
2022/05/18 06:43:50;;;;;;;;;;;19.30;1.00;;;;;;5054773;28;19948;-73
2022/05/18 06:46:17;;;;;;;;;;;19.50;1.00;;;;;;5053830;28;20249;-73
2022/05/18 06:48:43;;;;;;;;;;;19.70;1.00;;;;;;5087225;28;20330;-72
2022/05/18 06:51:21;;;;;;;;;;;19.80;1.00;;;;;;5085673;28;20283;-72
2022/05/18 06:53:47;;;;;;;;;;;20.00;1.00;;;;;;5053361;28;20351;-72
2022/05/18 06:56:13;;;;;;;;;;;20.20;1.00;;;;;;5065711;28;19908;-73
2022/05/18 06:58:44;;;;;;;;;;;20.40;1.00;;;;;;5065355;28;19912;-71
2022/05/18 07:01:09;;;;;;;;;;;20.50;1.00;;;;;;5041284;28;19936;-71
2022/05/18 07:03:35;;;;;;;;;;;20.60;1.00;;;;;;5053378;28;20368;-71
2022/05/18 07:06:01;;;;;;;;;;;20.80;1.00;;;;;;5066794;28;19909;-71
2022/05/18 07:08:27;;;;;;;;;;;20.90;1.00;;;;;;5053186;28;19913;-72
2022/05/18 07:10:52;;;;;;;;;;;21.10;1.00;;;;;;5071138;28;20023;-71
2022/05/18 07:13:18;;;;;;;;;;;21.30;99.90;;;;;;5056721;28;19939;-71
2022/05/18 07:15:44;;;;;;;;;;;21.40;99.90;;;;;;5059061;28;19912;-73
2022/05/18 07:18:09;;;;;;;;;;;21.50;99.90;;;;;;5066236;28;19999;-73
2022/05/18 07:20:35;;;;;;;;;;;21.70;99.90;;;;;;5064122;28;19971;-73
2022/05/18 07:23:00;;;;;;;;;;;21.80;99.90;;;;;;5052987;28;20481;-73
2022/05/18 07:25:26;;;;;;;;;;;22.00;99.90;;;;;;5056804;28;19913;-72
2022/05/18 07:27:51;;;;;;;;;;;22.00;99.90;;;;;;5056671;28;20384;-73
2022/05/18 07:30:17;;;;;;;;;;;22.20;99.90;;;;;;5053121;28;19920;-72
2022/05/18 07:32:42;;;;;;;;;;;22.40;99.90;;;;;;5055324;28;19935;-73
2022/05/18 07:35:08;;;;;;;;;;;22.50;99.90;;;;;;5065356;28;19913;-73
2022/05/18 07:37:34;;;;;;;;;;;22.70;99.90;;;;;;5052910;28;19908;-73
2022/05/18 07:39:59;;;;;;;;;;;22.90;99.90;;;;;;5065658;28;20360;-73
2022/05/18 07:42:25;;;;;;;;;;;22.90;99.90;;;;;;5056481;28;19924;-73
2022/05/18 07:44:50;;;;;;;;;;;23.00;99.90;;;;;;5055504;28;19921;-73
2022/05/18 07:47:16;;;;;;;;;;;23.10;99.90;;;;;;5053459;28;20314;-73
2022/05/18 07:49:42;;;;;;;;;;;23.10;99.90;;;;;;5055342;28;19916;-73
2022/05/18 07:52:08;;;;;;;;;;;23.30;99.90;;;;;;5069185;28;19960;-73
2022/05/18 07:54:34;;;;;;;;;;;23.40;99.90;;;;;;5059476;28;19936;-73
2022/05/18 07:57:00;;;;;;;;;;;23.60;99.90;;;;;;5049735;28;20249;-73
2022/05/18 07:59:25;;;;;;;;;;;23.70;99.90;;;;;;5066427;28;19921;-72
2022/05/18 08:01:51;;;;;;;;;;;23.90;99.90;;;;;;5065153;28;20390;-72
2022/05/18 08:04:16;;;;;;;;;;;23.90;99.90;;;;;;5056642;28;19924;-72
2022/05/18 08:06:42;;;;;;;;;;;24.00;99.90;;;;;;5073018;28;19909;-72
2022/05/18 08:09:07;;;;;;;;;;;24.00;99.90;;;;;;5059491;28;20420;-72
2022/05/18 08:17:07;;;;;;;;;;;24.30;99.90;;;;;;5055977;28;19928;-73
2022/05/18 08:19:33;;;;;;;;;;;24.40;99.90;;;;;;5063988;28;20006;-73
2022/05/18 08:21:58;;;;;;;;;;;24.50;99.90;;;;;;5056593;28;19955;-74
2022/05/18 08:24:24;;;;;;;;;;;24.50;99.90;;;;;;5055027;28;19927;-73
2022/05/18 08:26:50;;;;;;;;;;;24.60;99.90;;;;;;5060333;28;19913;-73
2022/05/18 08:29:19;;;;;;;;;;;24.70;99.90;;;;;;5061560;28;19924;-71
2022/05/18 08:31:45;;;;;;;;;;;24.80;99.90;;;;;;5058826;28;19923;-72
2022/05/18 08:34:13;;;;;;;;;;;24.90;99.90;;;;;;5061550;28;20007;-72
2022/05/18 08:36:39;;;;;;;;;;;25.00;99.90;;;;;;5068756;28;19919;-72
2022/05/18 08:39:04;;;;;;;;;;;25.00;99.90;;;;;;5057151;28;19912;-72
2022/05/18 08:41:42;;;;;;;;;;;25.10;99.90;;;;;;5053719;28;19924;-72
2022/05/18 08:44:19;;;;;;;;;;;25.10;99.90;;;;;;5053471;28;20035;-72
2022/05/18 08:46:53;;;;;;;;;;;25.10;99.90;;;;;;5052245;28;20023;-72
2022/05/18 08:49:27;;;;;;;;;;;25.10;99.90;;;;;;5050790;28;19913;-72
2022/05/18 08:51:59;;;;;;;;;;;25.30;99.90;;;;;;5054464;28;19962;-72
2022/05/18 08:54:30;;;;;;;;;;;25.30;99.90;;;;;;5074012;28;19915;-72
2022/05/18 08:57:02;;;;;;;;;;;25.40;99.90;;;;;;5056392;28;20047;-72
2022/05/18 08:59:30;;;;;;;;;;;25.60;99.90;;;;;;5071235;28;19912;-72
2022/05/18 09:02:10;;;;;;;;;;;25.80;99.90;;;;;;5064236;28;20375;-72
2022/05/18 09:04:56;;;;;;;;;;;25.90;99.90;;;;;;5058089;28;19916;-72
2022/05/18 09:07:24;;;;;;;;;;;25.80;99.90;;;;;;5093992;28;20295;-72
2022/05/18 09:12:38;;;;;;;;;;;26.00;99.90;;;;;;5046803;28;19920;-81
2022/05/18 09:15:07;;;;;;;;;;;26.10;99.90;;;;;;5063917;28;19961;-72
2022/05/18 09:17:33;;;;;;;;;;;26.20;99.90;;;;;;5055217;28;19909;-72
2022/05/18 09:20:12;;;;;;;;;;;26.30;99.90;;;;;;5056216;28;20244;-72
2022/05/18 09:22:56;;;;;;;;;;;26.50;99.90;;;;;;5059314;28;19965;-72
2022/05/18 09:25:39;;;;;;;;;;;26.50;99.90;;;;;;5062578;28;19915;-71
2022/05/18 09:28:13;;;;;;;;;;;26.40;99.90;;;;;;5056254;28;20019;-71
2022/05/18 09:30:48;;;;;;;;;;;26.60;99.90;;;;;;5058917;28;19920;-72
2022/05/18 09:33:36;;;;;;;;;;;26.80;99.90;;;;;;5048079;28;20291;-72
2022/05/18 09:36:20;;;;;;;;;;;27.00;99.90;;;;;;5043827;28;20390;-72
2022/05/18 09:39:04;;;;;;;;;;;27.00;99.90;;;;;;5059104;28;19921;-72
2022/05/18 09:41:35;;;;;;;;;;;27.20;99.90;;;;;;5061909;28;19923;-72
2022/05/18 09:44:07;;;;;;;;;;;27.20;99.90;;;;;;5055602;28;20383;-72
2022/05/18 09:46:34;;;;;;;;;;;27.30;99.90;;;;;;5057532;28;19912;-70
2022/05/18 09:49:17;;;;;;;;;;;27.60;99.90;;;;;;5047663;28;19956;-71
2022/05/18 09:51:44;;;;;;;;;;;27.60;99.90;;;;;;5055665;28;19986;-71
2022/05/18 09:54:09;;;;;;;;;;;27.70;99.90;;;;;;5057869;28;19912;-71
2022/05/18 09:56:39;;;;;;;;;;;27.70;99.90;;;;;;5068592;28;20322;-71
2022/05/18 09:59:12;;;;;;;;;;;27.80;99.90;;;;;;5058669;28;20275;-71
2022/05/18 10:07:28;;;;;;;;;;;27.80;99.90;;;;;;5049752;28;19955;-72
2022/05/18 10:10:00;;;;;;;;;;;27.90;99.90;;;;;;5059673;28;19923;-72
2022/05/18 10:12:31;;;;;;;;;;;27.90;99.90;;;;;;5053933;28;19943;-72
2022/05/18 10:15:03;;;;;;;;;;;28.00;99.90;;;;;;5054913;28;19934;-72
2022/05/18 10:17:35;;;;;;;;;;;28.10;99.90;;;;;;5054727;28;20340;-72
2022/05/18 10:20:06;;;;;;;;;;;28.20;99.90;;;;;;5054883;28;19913;-72
2022/05/18 10:22:35;;;;;;;;;;;28.40;99.90;;;;;;5054948;28;20066;-72
2022/05/18 10:25:03;;;;;;;;;;;28.50;99.90;;;;;;5064408;28;21618;-72
2022/05/18 10:27:30;;;;;;;;;;;28.50;99.90;;;;;;5059292;28;19913;-72
2022/05/18 10:30:28;;;;;;;;;;;28.50;99.90;;;;;;5071060;28;20542;-72
2022/05/18 10:32:54;;;;;;;;;;;28.60;99.90;;;;;;4976943;28;19925;-72
2022/05/18 10:35:35;;;;;;;;;;;28.70;99.90;;;;;;4976204;28;19914;-72
2022/05/18 10:38:01;;;;;;;;;;;28.70;99.90;;;;;;4984649;28;19914;-72
2022/05/18 10:40:27;;;;;;;;;;;28.80;99.90;;;;;;4974857;28;20857;-72
2022/05/18 10:42:54;;;;;;;;;;;28.80;99.90;;;;;;4993190;28;19992;-72
2022/05/18 10:45:26;;;;;;;;;;;28.80;99.90;;;;;;4975404;28;19914;-71
2022/05/18 10:47:53;;;;;;;;;;;28.90;99.90;;;;;;4974273;28;19936;-71
2022/05/18 10:50:25;;;;;;;;;;;29.00;99.90;;;;;;4969995;28;19958;-71
2022/05/18 10:52:58;;;;;;;;;;;28.90;99.90;;;;;;4972002;28;20049;-70
2022/05/18 10:55:24;;;;;;;;;;;28.70;99.90;;;;;;4974045;28;19945;-71
2022/05/18 10:57:58;;;;;;;;;;;28.90;99.90;;;;;;4978966;28;19933;-71
2022/05/18 11:00:27;;;;;;;;;;;29.00;99.90;;;;;;4976555;28;19941;-71
2022/05/18 11:03:05;;;;;;;;;;;29.10;99.90;;;;;;4975508;28;19914;-72
2022/05/18 11:05:40;;;;;;;;;;;29.10;99.90;;;;;;4970803;28;19914;-82
2022/05/18 11:08:15;;;;;;;;;;;29.20;99.90;;;;;;4956045;28;19949;-82
2022/05/18 11:14:02;;;;;;;;;;;29.30;99.90;;;;;;5053383;28;20280;-74
2022/05/18 11:16:39;;;;;;;;;;;29.30;99.90;;;;;;5050586;28;19913;-78
2022/05/18 11:19:21;;;;;;;;;;;29.50;99.90;;;;;;5053037;28;20364;-78
2022/05/18 11:21:53;;;;;;;;;;;29.50;99.90;;;;;;5053523;28;19935;-78
2022/05/18 11:24:37;;;;;;;;;;;29.60;99.90;;;;;;5053090;28;19913;-78
2022/05/18 11:27:25;;;;;;;;;;;29.70;99.90;;;;;;5062993;28;19913;-78
2022/05/18 11:30:20;;;;;;;;;;;29.80;99.90;;;;;;5057575;28;19921;-78
2022/05/18 11:33:04;;;;;;;;;;;29.80;99.90;;;;;;5031168;28;19999;-78
2022/05/18 11:35:39;;;;;;;;;;;29.90;99.90;;;;;;5017575;28;20004;-79
2022/05/18 11:38:23;;;;;;;;;;;30.00;99.90;;;;;;5012832;28;19913;-79
2022/05/18 11:40:58;;;;;;;;;;;29.90;99.90;;;;;;5021006;28;19913;-78
2022/05/18 11:43:42;;;;;;;;;;;30.00;99.90;;;;;;5015595;28;19914;-78
2022/05/18 11:46:40;;;;;;;;;;;30.00;99.90;;;;;;5017672;28;20013;-78
2022/05/18 11:49:07;;;;;;;;;;;30.00;99.90;;;;;;5011047;28;19909;-78
2022/05/18 11:51:52;;;;;;;;;;;30.00;99.90;;;;;;4994983;28;19929;-79
2022/05/18 11:54:28;;;;;;;;;;;30.10;99.90;;;;;;4975909;28;19925;-78
2022/05/18 11:57:01;;;;;;;;;;;30.30;99.90;;;;;;4997278;28;19910;-78
2022/05/18 11:59:54;;;;;;;;;;;30.40;99.90;;;;;;4994900;28;19914;-78
2022/05/18 12:02:25;;;;;;;;;;;30.60;99.90;;;;;;5000068;28;19913;-74
2022/05/18 12:04:51;;;;;;;;;;;30.70;99.90;;;;;;5007395;28;20415;-75
2022/05/18 12:07:35;;;;;;;;;;;30.90;99.90;;;;;;5006925;28;20003;-75
2022/05/18 12:10:08;;;;;;;;;;;30.80;99.90;;;;;;5032287;28;19913;-75
2022/05/18 12:12:36;;;;;;;;;;;30.80;99.90;;;;;;5030322;28;19913;-75
2022/05/18 12:15:04;;;;;;;;;;;30.80;99.90;;;;;;5021422;28;19909;-74
2022/05/18 12:17:41;;;;;;;;;;;30.90;99.90;;;;;;5033852;28;19913;-75
2022/05/18 12:20:07;;;;;;;;;;;30.90;99.90;;;;;;5030460;28;19913;-75
2022/05/18 12:22:38;;;;;;;;;;;31.00;99.90;;;;;;5037423;28;20291;-75
2022/05/18 12:25:05;;;;;;;;;;;31.20;99.90;;;;;;5037604;28;20440;-75
2022/05/18 12:27:30;;;;;;;;;;;31.30;99.90;;;;;;5061437;28;19952;-75
2022/05/18 12:29:58;;;;;;;;;;;31.30;99.90;;;;;;5076410;28;19975;-75
2022/05/18 12:32:24;;;;;;;;;;;31.40;99.90;;;;;;5036761;28;19938;-75
2022/05/18 12:35:10;;;;;;;;;;;31.40;99.90;;;;;;5047923;28;20267;-75
2022/05/18 12:38:03;;;;;;;;;;;31.40;99.90;;;;;;5056250;28;19920;-75
2022/05/18 12:40:48;;;;;;;;;;;31.30;99.90;;;;;;5051726;28;19913;-75
2022/05/18 12:43:37;;;;;;;;;;;31.30;99.90;;;;;;5070556;28;19915;-75
2022/05/18 12:46:23;;;;;;;;;;;31.40;99.90;;;;;;5070984;28;19908;-75
2022/05/18 12:48:49;;;;;;;;;;;31.60;99.90;;;;;;5032948;28;19917;-75
2022/05/18 12:51:33;;;;;;;;;;;31.80;99.90;;;;;;5033271;28;20462;-75
2022/05/18 12:54:13;;;;;;;;;;;31.80;99.90;;;;;;5048353;28;20030;-75
2022/05/18 12:56:38;;;;;;;;;;;31.60;99.90;;;;;;5045732;28;20028;-75
2022/05/18 12:59:06;;;;;;;;;;;31.40;99.90;;;;;;5040928;28;20029;-75
2022/05/18 13:01:35;;;;;;;;;;;31.30;99.90;;;;;;5052035;28;19948;-76
2022/05/18 13:04:05;;;;;;;;;;;31.40;99.90;;;;;;5028120;28;19917;-75
2022/05/18 13:06:31;;;;;;;;;;;31.60;99.90;;;;;;5036721;28;20391;-76
2022/05/18 13:09:03;;;;;;;;;;;31.70;99.90;;;;;;5041814;28;19913;-76
2022/05/18 13:11:39;;;;;;;;;;;31.60;99.90;;;;;;5038469;28;19971;-75
2022/05/18 13:14:24;;;;;;;;;;;31.60;99.90;;;;;;5024577;28;20362;-75
2022/05/18 13:16:50;;;;;;;;;;;31.60;99.90;;;;;;5011194;28;19971;-75
2022/05/18 13:19:20;;;;;;;;;;;31.50;99.90;;;;;;4981501;28;20421;-76
2022/05/18 13:22:05;;;;;;;;;;;31.40;99.90;;;;;;4997420;28;19914;-76
2022/05/18 13:24:49;;;;;;;;;;;31.50;99.90;;;;;;5009628;28;20311;-76
2022/05/18 13:27:17;;;;;;;;;;;31.70;99.90;;;;;;5011701;28;19917;-76
2022/05/18 13:29:43;;;;;;;;;;;31.80;99.90;;;;;;4997326;28;20003;-76
2022/05/18 13:32:11;;;;;;;;;;;32.00;99.90;;;;;;4990091;28;20424;-75
2022/05/18 13:34:48;;;;;;;;;;;32.30;99.90;;;;;;5010328;28;20319;-75
2022/05/18 13:37:14;;;;;;;;;;;32.20;99.90;;;;;;5000624;28;19918;-75
2022/05/18 13:39:42;;;;;;;;;;;32.10;99.90;;;;;;5010357;28;20381;-75
2022/05/18 13:42:11;;;;;;;;;;;32.10;99.90;;;;;;5012964;28;19916;-75
2022/05/18 13:44:37;;;;;;;;;;;32.20;99.90;;;;;;5013302;28;20289;-75
2022/05/18 13:47:03;;;;;;;;;;;32.50;99.90;;;;;;5013269;28;20361;-75
2022/05/18 13:49:34;;;;;;;;;;;32.70;99.90;;;;;;5011630;28;19960;-75
2022/05/18 13:52:05;;;;;;;;;;;32.90;99.90;;;;;;4997339;28;20304;-75
2022/05/18 13:54:31;;;;;;;;;;;32.90;99.90;;;;;;5058915;28;19952;-75
2022/05/18 13:57:01;;;;;;;;;;;32.50;99.90;;;;;;5069451;28;19908;-75
2022/05/18 13:59:28;;;;;;;;;;;32.30;99.90;;;;;;5054600;28;19912;-75
2022/05/18 14:01:55;;;;;;;;;;;32.20;99.90;;;;;;5069121;28;19916;-75
2022/05/18 14:04:22;;;;;;;;;;;32.20;99.90;;;;;;5059714;28;19908;-75
2022/05/18 14:06:48;;;;;;;;;;;32.00;99.90;;;;;;5069255;28;19913;-75
2022/05/18 14:09:16;;;;;;;;;;;31.90;99.90;;;;;;5059654;28;19916;-75
2022/05/18 14:11:42;;;;;;;;;;;31.80;99.90;;;;;;5065630;28;20311;-75
2022/05/18 14:14:08;;;;;;;;;;;31.90;99.90;;;;;;5074704;28;19913;-75
2022/05/18 14:16:46;;;;;;;;;;;32.10;99.90;;;;;;5073145;28;19912;-75
2022/05/18 14:19:15;;;;;;;;;;;32.40;99.90;;;;;;5057422;28;19909;-75
2022/05/18 14:21:42;;;;;;;;;;;32.60;99.90;;;;;;5066039;28;19912;-75
2022/05/18 14:24:18;;;;;;;;;;;32.80;99.90;;;;;;5048418;28;19916;-76
2022/05/18 14:27:00;;;;;;;;;;;33.00;99.90;;;;;;5054298;28;19926;-77
2022/05/18 14:29:55;;;;;;;;;;;33.00;99.90;;;;;;5058141;28;19925;-77
2022/05/18 14:32:29;;;;;;;;;;;33.30;99.90;;;;;;5056209;28;19913;-76
2022/05/18 14:35:03;;;;;;;;;;;33.70;99.90;;;;;;5047115;28;19929;-75
2022/05/18 14:37:33;;;;;;;;;;;34.00;99.90;;;;;;5052086;28;20477;-75
2022/05/18 14:40:00;;;;;;;;;;;34.20;99.90;;;;;;5055097;28;19913;-76
2022/05/18 14:42:26;;;;;;;;;;;34.30;99.90;;;;;;5068380;28;20299;-76
2022/05/18 14:45:02;;;;;;;;;;;34.50;99.90;;;;;;5057467;28;19966;-75
2022/05/18 14:47:43;;;;;;;;;;;34.40;99.90;;;;;;5048298;28;19915;-76
2022/05/18 14:50:09;;;;;;;;;;;34.20;99.90;;;;;;5062775;28;19916;-76
2022/05/18 14:52:42;;;;;;;;;;;33.70;99.90;;;;;;5054884;28;19913;-76
2022/05/18 14:55:10;;;;;;;;;;;33.30;99.90;;;;;;5068454;28;20332;-76
2022/05/18 14:57:36;;;;;;;;;;;33.10;99.90;;;;;;5054834;28;19909;-76
2022/05/18 15:00:25;;;;;;;;;;;32.80;99.90;;;;;;5063152;28;19912;-76
2022/05/18 15:03:08;;;;;;;;;;;32.70;99.90;;;;;;5062256;28;19948;-75
2022/05/18 15:05:59;;;;;;;;;;;32.80;99.90;;;;;;5066987;28;19908;-76
2022/05/18 15:08:33;;;;;;;;;;;33.00;99.90;;;;;;5055222;28;19919;-77
2022/05/18 15:11:01;;;;;;;;;;;33.40;99.90;;;;;;5056512;28;19917;-77
2022/05/18 15:13:31;;;;;;;;;;;34.20;99.90;;;;;;5056411;28;19923;-74
2022/05/18 15:15:57;;;;;;;;;;;34.80;99.90;;;;;;5054312;28;19908;-74
2022/05/18 15:18:28;;;;;;;;;;;35.00;99.90;;;;;;5061792;28;20443;-77
2022/05/18 15:21:03;;;;;;;;;;;34.80;99.90;;;;;;5054508;28;19913;-74
2022/05/18 15:23:34;;;;;;;;;;;34.40;99.90;;;;;;5057574;28;19915;-74
2022/05/18 15:26:02;;;;;;;;;;;33.80;99.90;;;;;;5069952;28;19958;-74
2022/05/18 15:28:36;;;;;;;;;;;33.80;99.90;;;;;;5071553;28;19917;-74
2022/05/18 15:31:08;;;;;;;;;;;35.30;99.90;;;;;;5060772;28;20287;-74
2022/05/18 15:33:36;;;;;;;;;;;37.50;99.90;;;;;;5071983;28;19912;-75
2022/05/18 15:36:03;;;;;;;;;;;39.00;99.90;;;;;;5063504;28;20252;-75
2022/05/18 15:38:30;;;;;;;;;;;40.30;99.90;;;;;;5047270;28;19992;-75
2022/05/18 15:40:56;;;;;;;;;;;41.70;99.90;;;;;;5047565;28;20275;-76
2022/05/18 15:43:22;;;;;;;;;;;42.80;99.90;;;;;;5052966;28;19909;-74
2022/05/18 15:45:50;;;;;;;;;;;43.90;99.90;;;;;;5066426;28;19916;-74
2022/05/18 15:48:16;;;;;;;;;;;45.20;99.90;;;;;;5059716;28;19924;-74
2022/05/18 15:50:42;;;;;;;;;;;45.40;99.90;;;;;;5061862;28;19912;-78
2022/05/18 15:53:22;;;;;;;;;;;46.30;99.90;;;;;;5056381;28;20404;-78
2022/05/18 15:55:48;;;;;;;;;;;47.20;99.90;;;;;;5067522;28;19999;-77
2022/05/18 15:58:14;;;;;;;;;;;48.20;99.90;;;;;;5061357;28;19960;-77
2022/05/18 16:00:49;;;;;;;;;;;48.10;99.90;;;;;;5060772;28;19919;-83
2022/05/18 16:03:15;;;;;;;;;;;47.50;99.90;;;;;;5066031;28;19913;-80
2022/05/18 16:05:41;;;;;;;;;;;46.60;99.90;;;;;;5059067;28;19921;-74
2022/05/18 16:08:06;;;;;;;;;;;45.50;99.90;;;;;;5073657;28;19916;-74
2022/05/18 16:10:32;;;;;;;;;;;44.20;99.90;;;;;;5064429;28;19916;-74
2022/05/18 16:12:58;;;;;;;;;;;43.80;99.90;;;;;;5066485;28;20352;-74
2022/05/18 16:15:24;;;;;;;;;;;44.10;99.90;;;;;;5073890;28;19912;-74